Time;durP1;ratioP1;P1;durP2;ratioP2;P2;SDS_P1;SDS_P2;PMS_P1;PMS_P2;Temp;Humidity;BMP_temperature;BMP_pressure;BME280_temperature;BME280_humidity;BME280_pressure;Samples;Min_cycle;Max_cycle;Signal;HPM_P1;HPM_P2
2022/06/23 00:02:24;;;;;;;6.03;3.88;;;14.90;99.90;;;;;;6151685;23;20064;-73
2022/06/23 00:04:56;;;;;;;5.07;4.35;;;14.90;99.90;;;;;;6152459;23;20537;-73
2022/06/23 00:07:35;;;;;;;6.32;4.10;;;14.90;99.90;;;;;;6179615;23;20469;-73
2022/06/23 00:10:25;;;;;;;5.45;4.30;;;14.90;99.90;;;;;;6177220;23;20005;-72
2022/06/23 00:12:52;;;;;;;5.15;3.50;;;14.90;99.90;;;;;;6177263;23;20350;-73
2022/06/23 00:15:29;;;;;;;5.13;3.78;;;14.80;99.90;;;;;;6153898;23;20120;-72
2022/06/23 00:18:01;;;;;;;4.95;3.78;;;14.80;99.90;;;;;;6151359;23;20017;-73
2022/06/23 00:20:32;;;;;;;5.55;4.20;;;14.80;99.90;;;;;;6151106;23;20012;-73
2022/06/23 00:23:18;;;;;;;6.07;4.32;;;14.80;99.90;;;;;;6151309;23;20028;-73
2022/06/23 00:26:10;;;;;;;5.10;3.97;;;14.80;99.90;;;;;;6178977;23;20021;-73
2022/06/23 00:28:38;;;;;;;4.32;3.60;;;14.80;99.90;;;;;;6150028;23;20096;-72
2022/06/23 00:31:06;;;;;;;5.10;3.90;;;14.70;99.90;;;;;;6152134;23;20108;-73
2022/06/23 00:33:39;;;;;;;5.65;3.70;;;14.70;99.90;;;;;;6178646;23;20407;-73
2022/06/23 00:36:29;;;;;;;4.80;4.15;;;14.70;99.90;;;;;;6179249;23;20422;-73
2022/06/23 00:38:55;;;;;;;5.50;4.10;;;14.70;99.90;;;;;;6151051;23;20025;-73
2022/06/23 00:41:31;;;;;;;6.07;4.32;;;14.70;99.90;;;;;;6178560;23;20040;-72
2022/06/23 00:44:03;;;;;;;5.70;4.18;;;14.70;99.90;;;;;;6151192;23;20025;-73
2022/06/23 00:46:36;;;;;;;6.85;4.00;;;14.60;99.90;;;;;;6179664;23;20099;-72
2022/06/23 00:49:14;;;;;;;5.80;4.03;;;14.70;99.90;;;;;;6180312;23;20021;-73
2022/06/23 00:51:52;;;;;;;5.82;4.13;;;14.60;99.90;;;;;;6153713;23;20630;-73
2022/06/23 00:54:24;;;;;;;6.32;4.15;;;14.60;99.90;;;;;;6179996;23;20020;-73
2022/06/23 00:57:09;;;;;;;4.90;4.03;;;14.50;99.90;;;;;;6179763;23;20027;-73
2022/06/23 00:59:44;;;;;;;5.32;3.67;;;14.50;99.90;;;;;;6151474;23;20100;-72
2022/06/23 01:02:24;;;;;;;7.30;4.43;;;14.50;99.90;;;;;;6181082;23;20087;-73
2022/06/23 01:05:22;;;;;;;6.43;4.60;;;14.50;99.90;;;;;;6152090;23;20025;-73
2022/06/23 01:08:03;;;;;;;5.70;4.20;;;14.50;99.90;;;;;;6151360;23;20024;-72
2022/06/23 01:10:43;;;;;;;7.27;4.20;;;14.40;99.90;;;;;;6182166;23;20097;-73
2022/06/23 01:13:17;;;;;;;6.55;4.75;;;14.40;99.90;;;;;;6153439;23;20559;-75
2022/06/23 01:15:45;;;;;;;;;;;14.40;99.90;;;;;;6181490;23;20032;-73
2022/06/23 01:18:25;;;;;;;6.93;4.55;;;14.40;99.90;;;;;;6153617;23;19916;-73
2022/06/23 01:21:03;;;;;;;6.83;4.30;;;14.30;99.90;;;;;;6179928;23;20025;-73
2022/06/23 01:23:44;;;;;;;7.78;5.07;;;14.40;99.90;;;;;;6180679;23;20009;-72
2022/06/23 01:26:21;;;;;;;6.38;4.63;;;14.40;99.90;;;;;;6153751;23;20024;-73
2022/06/23 01:28:49;;;;;;;11.52;5.75;;;14.30;99.90;;;;;;6178251;23;20021;-74
2022/06/23 01:31:29;;;;;;;6.65;5.38;;;14.30;99.90;;;;;;6179820;23;20021;-73
2022/06/23 01:34:50;;;;;;;8.27;5.55;;;14.30;99.90;;;;;;6152649;23;20024;-73
2022/06/23 01:37:52;;;;;;;7.80;5.93;;;14.30;99.90;;;;;;6045288;23;20026;-72
2022/06/23 01:40:29;;;;;;;;;;;14.30;99.90;;;;;;6180054;23;20017;-73
2022/06/23 01:43:03;;;;;;;7.18;5.55;;;14.20;99.90;;;;;;6151800;23;20003;-73
2022/06/23 01:45:52;;;;;;;8.02;5.03;;;14.20;99.90;;;;;;6181379;23;20017;-73
2022/06/23 01:51:30;;;;;;;6.05;5.07;;;14.20;99.90;;;;;;6153715;23;20105;-72
2022/06/23 01:54:22;;;;;;;10.07;5.72;;;14.20;99.90;;;;;;6153906;23;20048;-73
2022/06/23 01:56:55;;;;;;;7.40;5.75;;;14.20;99.90;;;;;;6178133;23;20021;-72
2022/06/23 01:59:55;;;;;;;7.93;6.03;;;14.10;99.90;;;;;;6149920;23;20020;-73
2022/06/23 02:02:34;;;;;;;8.55;6.03;;;14.20;99.90;;;;;;6152380;23;20025;-73
2022/06/23 02:05:19;;;;;;;7.00;5.25;;;14.20;99.90;;;;;;6152704;23;20033;-73
2022/06/23 02:08:23;;;;;;;7.10;5.35;;;14.10;99.90;;;;;;6153512;23;20120;-73
2022/06/23 02:11:06;;;;;;;8.82;6.32;;;14.10;99.90;;;;;;6153560;23;20017;-73
2022/06/23 02:13:51;;;;;;;8.18;6.55;;;14.10;99.90;;;;;;6153112;23;20013;-73
2022/06/23 02:16:26;;;;;;;8.52;6.43;;;14.20;99.90;;;;;;6179547;23;20167;-72
2022/06/23 02:19:28;;;;;;;8.15;5.72;;;14.10;99.90;;;;;;6152871;23;20047;-73
2022/06/23 02:22:09;;;;;;;6.95;5.53;;;14.20;99.90;;;;;;6178933;23;20013;-72
2022/06/23 02:24:52;;;;;;;8.23;5.80;;;14.10;99.90;;;;;;6179449;23;20013;-73
2022/06/23 02:27:32;;;;;;;8.13;6.38;;;14.10;99.90;;;;;;6153092;23;20021;-73
2022/06/23 02:30:19;;;;;;;8.38;5.93;;;14.10;99.90;;;;;;6152783;23;20017;-73
2022/06/23 02:33:04;;;;;;;6.78;5.80;;;14.20;99.90;;;;;;6153269;23;20405;-73
2022/06/23 02:35:51;;;;;;;7.25;5.70;;;14.20;99.90;;;;;;6179807;23;20108;-73
2022/06/23 02:38:37;;;;;;;7.18;5.50;;;14.10;99.90;;;;;;6177693;23;20044;-73
2022/06/23 02:41:24;;;;;;;9.38;5.60;;;14.20;99.90;;;;;;6179256;23;20096;-73
2022/06/23 02:43:57;;;;;;;7.07;6.00;;;14.20;99.90;;;;;;6179063;23;20048;-73
2022/06/23 02:47:00;;;;;;;8.65;5.97;;;14.20;99.90;;;;;;6179213;23;20434;-73
2022/06/23 02:50:25;;;;;;;9.30;6.22;;;14.20;99.90;;;;;;6154062;23;20508;-73
2022/06/23 02:53:15;;;;;;;9.73;6.20;;;14.20;99.90;;;;;;6034448;23;20587;-73
2022/06/23 02:55:59;;;;;;;7.80;6.43;;;14.10;99.90;;;;;;6154661;23;20068;-73
2022/06/23 02:58:49;;;;;;;9.77;6.55;;;14.10;99.90;;;;;;6150089;23;20067;-73
2022/06/23 03:01:31;;;;;;;8.77;6.80;;;14.10;99.90;;;;;;6126922;23;20419;-74
2022/06/23 03:04:05;;;;;;;10.90;5.97;;;14.10;99.90;;;;;;6152103;23;20024;-74
2022/06/23 03:06:45;;;;;;;10.07;7.47;;;14.10;99.90;;;;;;6153878;23;20020;-74
2022/06/23 03:09:21;;;;;;;8.23;6.40;;;14.20;99.90;;;;;;6153643;23;20033;-73
2022/06/23 03:11:54;;;;;;;11.45;7.18;;;14.10;99.90;;;;;;6180651;23;20406;-73
2022/06/23 03:14:34;;;;;;;10.73;7.00;;;14.20;99.90;;;;;;6178491;23;20016;-73
2022/06/23 03:17:27;;;;;;;9.43;6.60;;;14.20;99.90;;;;;;6152701;23;20021;-74
2022/06/23 03:20:12;;;;;;;9.20;5.95;;;14.20;99.90;;;;;;6179848;23;20023;-73
2022/06/23 03:22:58;;;;;;;10.27;7.10;;;14.20;99.90;;;;;;6152320;23;20017;-74
2022/06/23 03:25:41;;;;;;;12.02;7.25;;;14.20;99.90;;;;;;6181072;23;20096;-73
2022/06/23 03:28:13;;;;;;;8.95;6.93;;;14.20;99.90;;;;;;6179086;23;20101;-74
2022/06/23 03:30:59;;;;;;;11.77;6.65;;;14.30;99.90;;;;;;6152710;23;20025;-74
2022/06/23 03:33:31;;;;;;;9.80;7.00;;;14.30;99.90;;;;;;6151571;23;20025;-74
2022/06/23 03:36:19;;;;;;;9.68;6.70;;;14.30;99.90;;;;;;6180587;23;20017;-74
2022/06/23 03:42:50;;;;;;;7.63;6.07;;;14.30;99.90;;;;;;6177554;23;20100;-73
2022/06/23 03:45:48;;;;;;;8.93;6.45;;;14.30;99.90;;;;;;6179171;23;20020;-74
2022/06/23 03:48:28;;;;;;;13.10;7.32;;;14.20;99.90;;;;;;6152618;23;20028;-74
2022/06/23 03:51:11;;;;;;;11.60;6.67;;;14.30;99.90;;;;;;6178584;23;20013;-74
2022/06/23 03:53:51;;;;;;;10.70;6.93;;;14.30;99.90;;;;;;6179432;23;20083;-74
2022/06/23 03:56:23;;;;;;;9.45;6.90;;;14.30;99.90;;;;;;6177673;23;20442;-72
2022/06/23 03:59:18;;;;;;;9.93;7.30;;;14.30;99.90;;;;;;6150077;23;20017;-73
2022/06/23 04:01:51;;;;;;;11.15;7.35;;;14.30;99.90;;;;;;6139028;23;20017;-73
2022/06/23 04:04:23;;;;;;;10.63;7.00;;;14.30;99.90;;;;;;6152574;23;20024;-73
2022/06/23 04:06:51;;;;;;;12.80;8.05;;;14.40;99.90;;;;;;6179234;23;20024;-73
2022/06/23 04:09:32;;;;;;;10.02;7.60;;;14.40;99.90;;;;;;6151510;23;20096;-73
2022/06/23 04:12:08;;;;;;;11.38;7.70;;;14.40;99.90;;;;;;6178562;23;20101;-73
2022/06/23 04:14:33;;;;;;;9.60;6.72;;;14.40;99.90;;;;;;6151475;23;20092;-73
2022/06/23 04:17:38;;;;;;;11.05;7.13;;;14.40;99.90;;;;;;6152152;23;20414;-73
2022/06/23 04:20:16;;;;;;;12.15;7.40;;;14.50;99.90;;;;;;6179973;23;20017;-73
2022/06/23 04:22:53;;;;;;;16.30;8.88;;;14.50;99.90;;;;;;6154006;23;20017;-73
2022/06/23 04:25:22;;;;;;;10.25;7.32;;;14.50;99.90;;;;;;6154369;23;20524;-73
2022/06/23 04:27:58;;;;;;;13.30;7.78;;;14.50;99.90;;;;;;6179598;23;20020;-73
2022/06/23 04:30:30;;;;;;;14.70;7.68;;;14.60;99.90;;;;;;6153520;23;20032;-74
2022/06/23 04:32:56;;;;;;;;;;;14.70;99.90;;;;;;6155210;23;20096;-73
2022/06/23 04:35:36;;;;;;;9.98;7.20;;;14.60;99.90;;;;;;6181899;23;19915;-73
2022/06/23 04:38:10;;;;;;;12.48;8.38;;;14.60;99.90;;;;;;6180250;23;20035;-73
2022/06/23 04:40:42;;;;;;;15.30;7.75;;;14.70;99.90;;;;;;6154303;23;20028;-73
2022/06/23 04:43:35;;;;;;;9.73;7.53;;;14.70;99.90;;;;;;6152757;23;20028;-73
2022/06/23 04:46:07;;;;;;;12.52;8.40;;;14.80;99.90;;;;;;6180270;23;20544;-73
2022/06/23 04:48:38;;;;;;;9.70;8.02;;;14.80;99.90;;;;;;6154063;23;20017;-74
2022/06/23 04:51:31;;;;;;;9.88;7.05;;;14.80;99.90;;;;;;6181249;23;20021;-74
2022/06/23 04:54:09;;;;;;;12.20;7.50;;;14.90;99.90;;;;;;6179753;23;20017;-74
2022/06/23 04:56:40;;;;;;;11.30;7.22;;;15.00;99.90;;;;;;6154654;23;20021;-74
2022/06/23 04:59:24;;;;;;;10.80;7.57;;;15.00;99.90;;;;;;6179615;23;20116;-75
2022/06/23 05:01:53;;;;;;;9.30;6.65;;;15.10;99.90;;;;;;6154432;23;20025;-74
2022/06/23 05:04:38;;;;;;;10.88;7.70;;;15.10;99.90;;;;;;6153646;23;20017;-74
2022/06/23 05:07:16;;;;;;;9.27;7.13;;;15.20;99.90;;;;;;6153817;23;20029;-73
2022/06/23 05:09:46;;;;;;;13.35;6.97;;;15.20;99.90;;;;;;6151788;23;20013;-73
2022/06/23 05:12:25;;;;;;;9.85;7.10;;;15.20;99.90;;;;;;6151425;23;20179;-74
2022/06/23 05:14:52;;;;;;;12.20;8.85;;;15.30;99.90;;;;;;6180868;23;20013;-73
2022/06/23 05:17:18;;;;;;;11.48;7.40;;;15.40;99.90;;;;;;6180510;23;20017;-74
2022/06/23 05:19:45;;;;;;;14.07;7.72;;;15.40;99.90;;;;;;6180421;23;20147;-73
2022/06/23 05:22:19;;;;;;;11.95;8.25;;;15.50;99.90;;;;;;6180080;23;20013;-73
2022/06/23 05:24:50;;;;;;;12.45;8.27;;;15.50;99.90;;;;;;6180550;23;20021;-74
2022/06/23 05:27:32;;;;;;;11.30;8.37;;;15.60;99.90;;;;;;6152443;23;20021;-73
2022/06/23 05:30:19;;;;;;;13.75;8.00;;;15.60;99.90;;;;;;6153942;23;20520;-74
2022/06/23 05:32:50;;;;;;;11.43;8.18;;;15.70;99.90;;;;;;6180566;23;20072;-74
2022/06/23 05:35:34;;;;;;;11.07;7.90;;;15.80;99.90;;;;;;6153037;23;20137;-74
2022/06/23 05:38:20;;;;;;;11.02;7.20;;;15.80;99.90;;;;;;6153297;23;20483;-74
2022/06/23 05:40:59;;;;;;;11.32;8.77;;;15.90;99.90;;;;;;6153681;23;20020;-73
2022/06/23 05:43:29;;;;;;;10.23;7.20;;;15.90;99.90;;;;;;6152964;23;20303;-74
2022/06/23 05:45:58;;;;;;;14.77;8.05;;;16.00;99.90;;;;;;6154095;23;20021;-73
2022/06/23 05:48:26;;;;;;;12.18;7.45;;;16.10;99.90;;;;;;6177671;23;20068;-75
2022/06/23 05:51:18;;;;;;;;;;;16.20;99.90;;;;;;6181192;23;20376;-74
2022/06/23 05:54:23;;;;;;;12.32;8.45;;;16.20;99.90;;;;;;6146092;23;19944;-73
2022/06/23 05:57:10;;;;;;;11.60;8.27;;;16.20;99.90;;;;;;6165273;23;20017;-74
2022/06/23 05:59:56;;;;;;;16.42;9.45;;;16.30;99.90;;;;;;6178418;23;20021;-73
2022/06/23 06:02:31;;;;;;;10.95;8.18;;;16.40;99.90;;;;;;6152521;23;20025;-73
2022/06/23 06:05:00;;;;;;;10.85;8.23;;;16.40;99.90;;;;;;6153949;23;20087;-73
2022/06/23 06:07:32;;;;;;;10.35;8.23;;;16.50;99.90;;;;;;6153149;23;20382;-73
2022/06/23 06:09:59;;;;;;;13.18;8.70;;;16.60;99.90;;;;;;6152469;23;20013;-73
2022/06/23 06:12:31;;;;;;;14.75;9.25;;;16.60;99.90;;;;;;6152309;23;20017;-74
2022/06/23 06:15:04;;;;;;;15.13;9.20;;;16.70;99.90;;;;;;6152974;23;20048;-73
2022/06/23 06:17:33;;;;;;;14.18;9.25;;;16.80;99.90;;;;;;6152456;23;20013;-76
2022/06/23 06:20:07;;;;;;;11.82;8.57;;;16.80;99.90;;;;;;6153511;23;20075;-73
2022/06/23 06:22:52;;;;;;;14.75;9.85;;;16.90;99.90;;;;;;6177626;23;20092;-73
2022/06/23 06:25:23;;;;;;;12.63;8.82;;;17.00;99.90;;;;;;6153492;23;20147;-73
2022/06/23 06:27:49;;;;;;;12.23;8.50;;;17.00;99.90;;;;;;6152889;23;20103;-73
2022/06/23 06:30:21;;;;;;;11.05;9.02;;;17.10;99.90;;;;;;6152449;23;20365;-73
2022/06/23 06:32:48;;;;;;;12.38;8.90;;;17.10;99.90;;;;;;6153123;23;20037;-73
2022/06/23 06:35:19;;;;;;;11.52;8.15;;;17.20;99.90;;;;;;6152702;23;20096;-73
2022/06/23 06:37:59;;;;;;;12.73;8.20;;;17.30;99.90;;;;;;6179141;23;20111;-73
2022/06/23 06:40:25;;;;;;;11.32;7.85;;;17.30;99.90;;;;;;6180230;23;20056;-73
2022/06/23 06:42:59;;;;;;;11.90;7.78;;;17.40;99.90;;;;;;6152552;23;20024;-73
2022/06/23 06:45:29;;;;;;;12.15;7.72;;;17.50;99.90;;;;;;6151722;23;20385;-73
2022/06/23 06:47:55;;;;;;;13.65;8.38;;;17.50;99.90;;;;;;6153177;23;20013;-73
2022/06/23 06:50:31;;;;;;;12.02;8.38;;;17.60;99.90;;;;;;6153313;23;20114;-73
2022/06/23 06:53:00;;;;;;;12.02;7.10;;;17.60;99.90;;;;;;6178675;23;20151;-74
2022/06/23 06:55:50;;;;;;;11.13;7.85;;;17.70;99.90;;;;;;6154792;23;20032;-73
2022/06/23 06:58:24;;;;;;;11.20;7.95;;;17.80;99.90;;;;;;6179184;23;20017;-73
2022/06/23 07:01:01;;;;;;;14.38;7.80;;;17.80;99.90;;;;;;6153659;23;20013;-72
2022/06/23 07:03:27;;;;;;;11.35;7.68;;;17.90;99.90;;;;;;6152946;23;20827;-73
2022/06/23 07:05:58;;;;;;;10.30;7.55;;;18.00;99.90;;;;;;6178687;23;20398;-73
2022/06/23 07:08:37;;;;;;;10.05;7.50;;;18.00;99.90;;;;;;6179709;23;20088;-72
2022/06/23 07:11:06;;;;;;;7.95;6.38;;;18.10;99.90;;;;;;6179772;23;20017;-72
2022/06/23 07:13:59;;;;;;;11.15;7.60;;;18.20;99.90;;;;;;6151286;23;20021;-72
2022/06/23 07:16:40;;;;;;;11.00;6.55;;;18.20;99.90;;;;;;6131933;23;20434;-77
2022/06/23 07:19:18;;;;;;;9.13;6.75;;;18.30;99.90;;;;;;6152252;23;20441;-78
2022/06/23 07:22:11;;;;;;;11.07;6.97;;;18.30;99.90;;;;;;6152270;23;20017;-78
2022/06/23 07:25:09;;;;;;;10.40;7.03;;;18.40;99.90;;;;;;6178007;23;20043;-75
2022/06/23 07:27:50;;;;;;;11.68;7.57;;;18.50;99.90;;;;;;6151189;23;20445;-75
2022/06/23 07:30:24;;;;;;;11.73;7.38;;;18.60;99.90;;;;;;6177377;23;20075;-75
2022/06/23 07:33:02;;;;;;;15.40;7.10;;;18.60;99.90;;;;;;6152499;23;20233;-76
2022/06/23 07:35:38;;;;;;;12.50;7.00;;;18.70;99.90;;;;;;6178681;23;20302;-75
2022/06/23 07:38:17;;;;;;;9.68;6.68;;;18.80;99.90;;;;;;6152530;23;20481;-75
2022/06/23 07:40:57;;;;;;;12.57;7.40;;;18.90;99.90;;;;;;6150573;23;20027;-75
2022/06/23 07:43:29;;;;;;;9.52;6.65;;;18.90;99.90;;;;;;6178455;23;20021;-75
2022/06/23 07:45:57;;;;;;;10.00;6.88;;;18.90;99.90;;;;;;6152168;23;20519;-75
2022/06/23 07:48:24;;;;;;;9.10;6.78;;;19.00;99.90;;;;;;6179101;23;20016;-75
2022/06/23 07:50:50;;;;;;;9.52;6.55;;;19.00;99.90;;;;;;6179334;23;20322;-75
2022/06/23 07:53:38;;;;;;;12.70;6.20;;;19.10;99.90;;;;;;6150962;23;20017;-75
2022/06/23 07:56:06;;;;;;;10.48;6.93;;;19.20;99.90;;;;;;6174095;23;20021;-75
2022/06/23 07:58:34;;;;;;;10.23;6.85;;;19.20;99.90;;;;;;6149455;23;20017;-78
2022/06/23 08:01:12;;;;;;;12.38;6.43;;;19.30;99.90;;;;;;6151777;23;20346;-79
2022/06/23 08:03:51;;;;;;;8.20;5.88;;;19.40;99.90;;;;;;6152743;23;20342;-79
2022/06/23 08:06:18;;;;;;;9.40;5.97;;;19.40;99.90;;;;;;6178421;23;20056;-79
2022/06/23 08:08:45;;;;;;;10.85;6.40;;;19.40;99.90;;;;;;6150907;23;20318;-79
2022/06/23 08:14:08;;;;;;;8.70;5.65;;;19.60;99.90;;;;;;6177308;23;20017;-78
2022/06/23 08:16:49;;;;;;;8.00;5.75;;;19.80;99.90;;;;;;6178340;23;20021;-73
2022/06/23 08:19:30;;;;;;;11.82;7.65;;;19.80;99.90;;;;;;6177878;23;20017;-74
2022/06/23 08:22:05;;;;;;;9.70;6.80;;;19.80;99.90;;;;;;6177955;23;20084;-74
2022/06/23 08:24:32;;;;;;;9.85;6.53;;;19.90;99.90;;;;;;6150085;23;20023;-73
2022/06/23 08:27:06;;;;;;;7.72;5.22;;;20.00;99.90;;;;;;6153188;23;20119;-73
2022/06/23 08:29:41;;;;;;;10.07;6.65;;;20.10;99.90;;;;;;6177816;23;20044;-74
2022/06/23 08:32:07;;;;;;;8.85;6.00;;;20.10;99.90;;;;;;6153533;23;20048;-74
2022/06/23 08:34:36;;;;;;;9.05;6.10;;;20.20;99.90;;;;;;6151220;23;20013;-74
2022/06/23 08:37:15;;;;;;;9.13;6.03;;;20.30;99.90;;;;;;6150060;23;20024;-73
2022/06/23 08:39:59;;;;;;;12.48;7.00;;;20.40;99.90;;;;;;6153255;23;20075;-73
2022/06/23 08:43:01;;;;;;;10.13;6.90;;;20.50;99.90;;;;;;6179867;23;20087;-73
2022/06/23 08:45:48;;;;;;;10.60;5.93;;;20.60;99.90;;;;;;6158397;23;20154;-74
2022/06/23 08:48:28;;;;;;;11.13;6.25;;;20.60;99.90;;;;;;6177887;23;20133;-73
2022/06/23 08:50:56;;;;;;;9.88;6.43;;;20.70;99.90;;;;;;6151346;23;20099;-73
2022/06/23 08:53:37;;;;;;;11.18;5.63;;;20.80;99.90;;;;;;6179490;23;20013;-74
2022/06/23 08:56:12;;;;;;;;;;;20.90;99.90;;;;;;6153036;23;20201;-74
2022/06/23 08:58:47;;;;;;;10.70;5.70;;;20.90;99.90;;;;;;6177610;23;19969;-74
2022/06/23 09:01:40;;;;;;;7.70;5.18;;;21.00;99.90;;;;;;6152955;23;20099;-75
2022/06/23 09:04:12;;;;;;;18.60;6.82;;;21.10;99.90;;;;;;6152321;23;20531;-74
2022/06/23 09:06:50;;;;;;;10.07;5.80;;;21.20;99.90;;;;;;6179504;23;20032;-74
2022/06/23 09:09:41;;;;;;;6.18;4.75;;;21.30;99.90;;;;;;6180589;23;20017;-74
2022/06/23 09:12:22;;;;;;;7.35;4.60;;;21.30;99.90;;;;;;6179624;23;20024;-73
2022/06/23 09:15:26;;;;;;;11.02;4.10;;;21.50;99.90;;;;;;6181339;23;20103;-73
2022/06/23 09:18:21;;;;;;;9.63;4.68;;;21.50;99.90;;;;;;6179895;23;20057;-74
2022/06/23 09:21:12;;;;;;;11.13;5.35;;;21.70;99.90;;;;;;6155276;23;20016;-74
2022/06/23 09:23:53;;;;;;;6.97;4.30;;;21.70;99.90;;;;;;6153879;23;20017;-76
2022/06/23 09:26:41;;;;;;;7.65;5.13;;;21.80;99.90;;;;;;6179670;23;20021;-74
2022/06/23 09:29:22;;;;;;;8.88;4.78;;;21.90;99.90;;;;;;6179823;23;20307;-72
2022/06/23 09:32:16;;;;;;;7.97;5.05;;;22.00;99.90;;;;;;6153054;23;20020;-74
2022/06/23 09:34:44;;;;;;;12.32;4.55;;;22.10;99.90;;;;;;6149165;23;20049;-74
2022/06/23 09:37:36;;;;;;;8.80;3.85;;;22.10;99.90;;;;;;6149915;23;20040;-74
2022/06/23 09:40:30;;;;;;;9.10;4.32;;;22.20;99.90;;;;;;6178601;23;20009;-73
2022/06/23 09:43:08;;;;;;;6.28;3.30;;;22.30;99.90;;;;;;6151166;23;20056;-74
2022/06/23 09:45:49;;;;;;;7.55;3.75;;;22.40;99.90;;;;;;6181610;23;20013;-73
2022/06/23 09:48:24;;;;;;;7.88;4.55;;;22.50;99.90;;;;;;6179941;23;20021;-73
2022/06/23 09:51:08;;;;;;;8.25;3.63;;;22.50;99.90;;;;;;6155125;23;20021;-74
2022/06/23 09:53:39;;;;;;;9.68;4.00;;;22.60;99.90;;;;;;6152238;23;20048;-74
2022/06/23 09:56:27;;;;;;;5.78;3.50;;;22.70;99.90;;;;;;6180929;23;20435;-73
2022/06/23 09:59:20;;;;;;;7.60;3.03;;;22.70;99.90;;;;;;6180057;23;20017;-75
2022/06/23 10:02:13;;;;;;;6.63;3.10;;;22.80;99.90;;;;;;6179785;23;20017;-75
2022/06/23 10:04:57;;;;;;;7.43;2.95;;;22.90;99.90;;;;;;6180307;23;20425;-75
2022/06/23 10:07:26;;;;;;;4.43;3.05;;;23.00;99.90;;;;;;6153331;23;20456;-76
2022/06/23 10:10:00;;;;;;;11.05;3.33;;;23.00;99.90;;;;;;6180995;23;20017;-75
2022/06/23 10:12:44;;;;;;;5.78;2.90;;;23.10;99.90;;;;;;6153882;23;20017;-75
2022/06/23 10:15:35;;;;;;;4.40;2.72;;;23.20;99.90;;;;;;6152078;23;20040;-75
2022/06/23 10:18:00;;;;;;;;;;;23.30;99.90;;;;;;6152107;23;20017;-75
2022/06/23 10:20:51;;;;;;;5.63;2.92;;;23.30;99.90;;;;;;6151449;23;19931;-75
2022/06/23 10:23:25;;;;;;;5.53;2.53;;;23.40;99.90;;;;;;6150900;23;20102;-76
2022/06/23 10:26:22;;;;;;;6.85;2.78;;;23.50;99.90;;;;;;6153143;23;20021;-75
2022/06/23 10:29:13;;;;;;;4.30;2.83;;;23.60;99.90;;;;;;6150937;23;20021;-75
2022/06/23 10:32:06;;;;;;;6.70;2.55;;;23.60;99.90;;;;;;6179765;23;20442;-75
2022/06/23 10:34:41;;;;;;;6.72;2.65;;;23.70;99.90;;;;;;6179918;23;20021;-76
2022/06/23 10:37:15;;;;;;;4.28;2.75;;;23.80;98.90;;;;;;6152047;23;20068;-75
2022/06/23 10:40:02;;;;;;;4.10;2.47;;;23.90;98.60;;;;;;6152520;23;20096;-75
2022/06/23 10:42:46;;;;;;;4.78;2.20;;;24.00;98.00;;;;;;6178594;23;20100;-75
2022/06/23 10:45:34;;;;;;;3.13;2.17;;;24.00;97.90;;;;;;6175842;23;20028;-75
2022/06/23 10:48:06;;;;;;;4.07;2.05;;;24.20;97.20;;;;;;6148352;23;20027;-75
2022/06/23 10:51:02;;;;;;;6.72;2.58;;;24.20;96.60;;;;;;6177113;23;20017;-75
2022/06/23 10:53:34;;;;;;;6.40;2.17;;;24.30;96.00;;;;;;6177291;23;20088;-75
2022/06/23 10:56:32;;;;;;;5.07;2.10;;;24.30;94.90;;;;;;6178228;23;20013;-75
2022/06/23 10:59:11;;;;;;;7.65;2.38;;;24.40;94.50;;;;;;6152462;23;20455;-75
2022/06/23 11:01:52;;;;;;;4.60;2.47;;;24.50;94.40;;;;;;6154714;23;20025;-75
2022/06/23 11:04:43;;;;;;;4.68;2.20;;;24.60;94.20;;;;;;6152315;23;20390;-73
2022/06/23 11:07:11;;;;;;;4.87;2.23;;;24.60;93.70;;;;;;6153792;23;20390;-74
2022/06/23 11:09:44;;;;;;;6.85;2.10;;;24.70;93.10;;;;;;6153605;23;20436;-74
2022/06/23 11:12:40;;;;;;;4.63;2.28;;;24.80;92.60;;;;;;6179011;23;20033;-74
2022/06/23 11:15:40;;;;;;;6.82;2.35;;;24.90;92.90;;;;;;6094608;23;20413;-75
2022/06/23 11:18:38;;;;;;;7.32;2.60;;;25.00;92.50;;;;;;6179284;23;20122;-74
2022/06/23 11:21:42;;;;;;;10.13;2.60;;;25.10;92.40;;;;;;6134262;23;20315;-74
2022/06/23 11:24:22;;;;;;;5.30;2.08;;;25.20;92.60;;;;;;6059139;23;20452;-74
2022/06/23 11:27:13;;;;;;;7.53;2.58;;;25.30;92.20;;;;;;6152458;23;20019;-74
2022/06/23 11:30:04;;;;;;;11.48;2.97;;;25.40;91.80;;;;;;6152528;23;20044;-74
2022/06/23 11:33:11;;;;;;;7.32;2.25;;;25.50;91.40;;;;;;6152541;23;20025;-73
2022/06/23 11:35:43;;;;;;;10.63;2.42;;;25.70;91.40;;;;;;6137530;23;20027;-73
2022/06/23 11:38:18;;;;;;;4.50;2.20;;;25.80;90.80;;;;;;6152920;23;20017;-74
2022/06/23 11:40:49;;;;;;;6.35;2.10;;;25.90;90.40;;;;;;6151510;23;20438;-73
2022/06/23 11:43:42;;;;;;;3.90;2.20;;;26.00;89.90;;;;;;6179218;23;20314;-74
2022/06/23 11:46:34;;;;;;;8.23;2.35;;;26.10;89.50;;;;;;6152201;23;20494;-73
2022/06/23 11:49:43;;;;;;;3.50;1.90;;;26.20;88.60;;;;;;6178239;23;20025;-73
2022/06/23 11:52:45;;;;;;;7.35;2.00;;;26.30;87.00;;;;;;6180710;23;20017;-74
2022/06/23 11:55:36;;;;;;;6.03;2.38;;;26.40;86.90;;;;;;6152372;23;20295;-73
2022/06/23 11:58:25;;;;;;;;;;;26.50;85.50;;;;;;6180159;23;20055;-74
2022/06/23 12:01:15;;;;;;;7.93;2.10;;;26.60;87.70;;;;;;6153219;23;20022;-73
2022/06/23 12:04:09;;;;;;;7.78;2.42;;;26.60;85.70;;;;;;6180411;23;20017;-74
2022/06/23 12:06:59;;;;;;;4.38;2.00;;;26.70;85.30;;;;;;6152819;23;20426;-74
2022/06/23 12:09:46;;;;;;;3.83;2.05;;;26.80;83.20;;;;;;6179105;23;20083;-73
2022/06/23 12:12:12;;;;;;;7.00;2.22;;;26.90;83.70;;;;;;6153439;23;20083;-74
2022/06/23 12:14:38;;;;;;;4.32;1.70;;;27.00;82.30;;;;;;6151832;23;20020;-74
2022/06/23 12:17:13;;;;;;;5.55;2.25;;;27.10;80.30;;;;;;6152969;23;20025;-73
2022/06/23 12:20:16;;;;;;;5.55;2.45;;;27.10;79.90;;;;;;6180337;23;20009;-73
2022/06/23 12:22:51;;;;;;;6.78;2.08;;;27.20;80.20;;;;;;6178748;23;20092;-73
2022/06/23 12:25:27;;;;;;;6.18;1.80;;;27.30;79.70;;;;;;6180337;23;20105;-73
2022/06/23 12:28:07;;;;;;;3.95;2.03;;;27.40;78.50;;;;;;6151942;23;20088;-74
2022/06/23 12:30:43;;;;;;;7.03;2.20;;;27.50;78.00;;;;;;6180107;23;20024;-73
2022/06/23 12:33:21;;;;;;;6.43;2.22;;;27.60;77.20;;;;;;6152465;23;20013;-73
2022/06/23 12:35:59;;;;;;;5.00;1.80;;;27.70;76.80;;;;;;6178780;23;20096;-73
2022/06/23 12:38:31;;;;;;;3.60;1.70;;;27.70;75.80;;;;;;6178447;23;20044;-74
2022/06/23 12:41:43;;;;;;;7.70;2.10;;;27.80;75.90;;;;;;6153993;23;20641;-74
2022/06/23 12:44:23;;;;;;;3.88;1.95;;;27.90;75.40;;;;;;6035727;23;20023;-74
2022/06/23 12:46:58;;;;;;;4.07;2.00;;;28.00;75.40;;;;;;6037762;23;20415;-74
2022/06/23 12:50:12;;;;;;;5.60;2.00;;;28.00;72.30;;;;;;6109900;23;20105;-73
2022/06/23 12:53:05;;;;;;;6.50;2.72;;;28.10;72.70;;;;;;6152558;23;20535;-73
2022/06/23 12:55:46;;;;;;;8.43;2.10;;;28.20;71.20;;;;;;6155566;23;20024;-73
2022/06/23 12:58:12;;;;;;;5.60;1.65;;;28.30;71.30;;;;;;6153353;23;20173;-73
2022/06/23 13:00:37;;;;;;;3.03;1.70;;;28.40;69.30;;;;;;6155979;23;20160;-73
2022/06/23 13:03:15;;;;;;;2.65;1.70;;;28.50;70.10;;;;;;6154804;23;20425;-74
2022/06/23 13:06:12;;;;;;;5.88;1.77;;;28.50;69.40;;;;;;6182070;23;20020;-73
2022/06/23 13:09:03;;;;;;;4.53;1.77;;;28.60;69.10;;;;;;6134828;23;20025;-74
2022/06/23 13:12:23;;;;;;;2.50;1.63;;;28.60;68.60;;;;;;6154593;23;20013;-73
2022/06/23 13:14:53;;;;;;;3.80;1.90;;;28.70;68.00;;;;;;6036575;23;20085;-73
2022/06/23 13:17:54;;;;;;;2.75;1.80;;;28.80;67.10;;;;;;6035331;23;20026;-73
2022/06/23 13:20:35;;;;;;;4.00;1.40;;;28.90;67.40;;;;;;6061143;23;20071;-73
2022/06/23 13:23:06;;;;;;;6.82;1.55;;;28.90;66.60;;;;;;6096380;23;20017;-74
2022/06/23 13:25:40;;;;;;;3.67;1.83;;;29.00;64.90;;;;;;6180355;23;20176;-74
2022/06/23 13:28:17;;;;;;;6.20;1.80;;;29.00;64.50;;;;;;6154267;23;20440;-74
2022/06/23 13:30:49;;;;;;;3.72;1.70;;;29.10;63.70;;;;;;6155294;23;20654;-74
2022/06/23 13:33:26;;;;;;;7.75;2.00;;;29.10;62.80;;;;;;6180041;23;20327;-73
2022/06/23 13:36:21;;;;;;;4.68;2.00;;;29.20;63.60;;;;;;6182062;23;20429;-75
2022/06/23 13:39:00;;;;;;;4.65;1.92;;;29.40;61.90;;;;;;6152788;23;20028;-73
2022/06/23 13:41:46;;;;;;;6.68;2.38;;;29.50;62.40;;;;;;6155537;23;20246;-74
2022/06/23 13:44:27;;;;;;;3.42;1.90;;;29.60;60.80;;;;;;6180553;23;20017;-74
2022/06/23 13:47:01;;;;;;;2.83;1.60;;;29.70;62.00;;;;;;6153852;23;20580;-74
2022/06/23 13:50:05;;;;;;;2.58;1.73;;;29.80;59.90;;;;;;6155019;23;20017;-74
2022/06/23 13:52:50;;;;;;;2.45;1.70;;;29.80;59.60;;;;;;6049908;23;20029;-74
2022/06/23 13:55:19;;;;;;;4.03;2.08;;;29.90;61.30;;;;;;6154997;23;20480;-74
2022/06/23 13:58:05;;;;;;;2.95;1.67;;;29.90;60.60;;;;;;6153388;23;20079;-74
2022/06/23 14:00:39;;;;;;;3.50;2.03;;;30.00;60.70;;;;;;6153857;23;20021;-74
2022/06/23 14:03:33;;;;;;;5.55;1.88;;;30.00;60.90;;;;;;6180682;23;20027;-73
2022/06/23 14:06:10;;;;;;;3.85;1.83;;;30.00;60.80;;;;;;6153576;23;20611;-74